createdAt,value
2023-02-25T00:01:38.903Z,98893.38
2023-02-25T00:04:06.100Z,98905.56
2023-02-25T00:06:32.989Z,98904.19
2023-02-25T00:09:00.982Z,98893.22
2023-02-25T00:11:28.333Z,98882.06
2023-02-25T00:13:55.437Z,98877.47
2023-02-25T00:16:25.135Z,98883.84
2023-02-25T00:18:57.270Z,98885.44
2023-02-25T00:21:25.353Z,98883.78
2023-02-25T00:23:53.533Z,98875.53
2023-02-25T00:26:21.805Z,98862.22
2023-02-25T00:28:50.416Z,98871.78
2023-02-25T00:31:23.861Z,98878.16
2023-02-25T00:33:53.053Z,98892.97
2023-02-25T00:36:24.745Z,98921.00
2023-02-25T00:38:56.104Z,98921.47
2023-02-25T00:41:28.171Z,98922.72
2023-02-25T00:43:59.437Z,98920.97
2023-02-25T00:46:28.380Z,98910.13
2023-02-25T00:48:55.434Z,98916.13
2023-02-25T00:51:27.009Z,98927.09
2023-02-25T00:53:56.361Z,98920.06
2023-02-25T00:56:26.044Z,98924.75
2023-02-25T00:58:53.488Z,98913.81
2023-02-25T01:01:33.221Z,98911.09
2023-02-25T01:04:01.024Z,98907.59
2023-02-25T01:06:29.572Z,98899.63
2023-02-25T01:08:58.612Z,98900.63
2023-02-25T01:11:33.591Z,98900.13
2023-02-25T01:14:05.877Z,98904.63
2023-02-25T01:16:35.899Z,98891.63
2023-02-25T01:19:11.734Z,98892.66
2023-02-25T01:21:42.452Z,98896.38
2023-02-25T01:24:20.774Z,98890.03
2023-02-25T01:26:50.919Z,98897.97
2023-02-25T01:29:22.265Z,98896.13
2023-02-25T01:31:54.644Z,98896.69
2023-02-25T01:34:25.905Z,98893.53
2023-02-25T01:36:53.256Z,98895.38
2023-02-25T01:39:22.505Z,98894.34
2023-02-25T01:41:53.052Z,98875.78
2023-02-25T01:44:33.378Z,98879.06
2023-02-25T01:47:04.224Z,98877.22
2023-02-25T01:49:40.101Z,98881.22
2023-02-25T01:52:12.575Z,98869.88
2023-02-25T01:54:40.482Z,98876.31
2023-02-25T01:57:11.015Z,98885.06
2023-02-25T01:59:40.515Z,98877.97
2023-02-25T02:02:14.896Z,98878.50
2023-02-25T02:04:44.296Z,98883.56
2023-02-25T02:07:11.917Z,98872.72
2023-02-25T02:09:40.284Z,98883.38
2023-02-25T02:12:07.931Z,98888.19
2023-02-25T02:14:41.499Z,98886.09
2023-02-25T02:17:36.153Z,98888.56
2023-02-25T02:20:14.391Z,98871.59
2023-02-25T02:23:22.647Z,98888.63
2023-02-25T02:26:41.141Z,98881.72
2023-02-25T02:29:39.422Z,98880.97
2023-02-25T02:32:36.112Z,98888.66
2023-02-25T02:35:25.285Z,98884.72
2023-02-25T02:38:08.376Z,98889.78
2023-02-25T02:41:06.757Z,98879.97
2023-02-25T02:43:46.180Z,98893.53
2023-02-25T02:46:25.413Z,98890.38
2023-02-25T02:49:15.896Z,98879.97
2023-02-25T02:51:57.172Z,98879.22
2023-02-25T02:54:32.680Z,98875.78
2023-02-25T02:57:02.157Z,98893.84
2023-02-25T02:59:42.860Z,98888.28
2023-02-25T03:02:18.942Z,98890.38
2023-02-25T03:04:50.465Z,98891.72
2023-02-25T03:07:18.344Z,98889.13
2023-02-25T03:09:52.472Z,98891.50
2023-02-25T03:12:20.033Z,98902.34
2023-02-25T03:14:47.549Z,98910.06
2023-02-25T03:17:32.165Z,98898.41
2023-02-25T03:20:22.697Z,98918.56
2023-02-25T03:22:52.086Z,98913.50
2023-02-25T03:25:29.349Z,98920.66
2023-02-25T03:28:01.697Z,98935.53
2023-02-25T03:30:33.266Z,98943.50
2023-02-25T03:33:09.557Z,98951.53
2023-02-25T03:35:38.501Z,98950.25
2023-02-25T03:38:11.164Z,98948.31
2023-02-25T03:40:40.326Z,98971.63
2023-02-25T03:43:15.390Z,98969.22
2023-02-25T03:45:44.370Z,98962.56
2023-02-25T03:48:13.458Z,98979.81
2023-02-25T03:51:04.232Z,98973.47
2023-02-25T03:53:35.334Z,98970.50
2023-02-25T03:56:12.051Z,98971.81
2023-02-25T03:58:43.942Z,98980.25
2023-02-25T04:01:17.466Z,98977.06
2023-02-25T04:03:44.978Z,98981.00
2023-02-25T04:06:13.861Z,98980.44
2023-02-25T04:08:41.697Z,98987.03
2023-02-25T04:11:08.942Z,98974.34
2023-02-25T04:13:36.013Z,98989.44
2023-02-25T04:16:04.599Z,98994.19
2023-02-25T04:18:32.327Z,99003.19
2023-02-25T04:20:59.880Z,98998.38
2023-02-25T04:23:27.033Z,99003.69
2023-02-25T04:25:53.959Z,99002.00
2023-02-25T04:28:21.012Z,99004.50
2023-02-25T04:30:48.011Z,99004.72
2023-02-25T04:33:15.167Z,98993.81
2023-02-25T04:35:42.205Z,99010.03
2023-02-25T04:38:09.455Z,99006.59
2023-02-25T04:40:37.034Z,99014.84
2023-02-25T04:43:03.927Z,99024.91
2023-02-25T04:45:31.081Z,99020.41
2023-02-25T04:47:58.208Z,99025.16
2023-02-25T04:50:25.937Z,99027.00
2023-02-25T04:52:52.948Z,99031.75
2023-02-25T04:55:20.030Z,99036.00
2023-02-25T04:57:47.052Z,99032.78
2023-02-25T05:00:24.349Z,99042.59
2023-02-25T05:02:51.359Z,99027.72
2023-02-25T05:05:19.348Z,99040.19
2023-02-25T05:07:47.066Z,99038.81
2023-02-25T05:10:15.051Z,99057.69
2023-02-25T05:12:42.566Z,99046.28
2023-02-25T05:15:10.666Z,99053.69
2023-02-25T05:17:37.967Z,99064.06
2023-02-25T05:20:12.873Z,99063.72
2023-02-25T05:22:41.250Z,99050.16
2023-02-25T05:25:10.164Z,99057.88
2023-02-25T05:27:37.616Z,99066.31
2023-02-25T05:30:05.448Z,99059.66
2023-02-25T05:32:32.709Z,99071.84
2023-02-25T05:35:00.324Z,99081.66
2023-02-25T05:37:27.559Z,99073.69
2023-02-25T05:39:54.753Z,99067.59
2023-02-25T05:42:21.985Z,99072.09
2023-02-25T05:44:48.928Z,99076.03
2023-02-25T05:47:16.370Z,99085.34
2023-02-25T05:49:43.594Z,99081.91
2023-02-25T05:52:14.387Z,99101.81
2023-02-25T05:54:41.638Z,99098.28
2023-02-25T05:57:08.778Z,99105.75
2023-02-25T05:59:36.766Z,99113.38
2023-02-25T06:02:04.777Z,99111.31
2023-02-25T06:04:32.054Z,99120.06
2023-02-25T06:06:59.232Z,99112.59
2023-02-25T06:09:27.219Z,99120.06
2023-02-25T06:11:54.311Z,99137.81
2023-02-25T06:14:21.188Z,99126.97
2023-02-25T06:16:48.238Z,99146.31
2023-02-25T06:19:15.266Z,99157.97
2023-02-25T06:21:42.230Z,99158.69
2023-02-25T06:24:10.766Z,99170.44
2023-02-25T06:26:42.599Z,99166.16
2023-02-25T06:29:10.294Z,99161.81
2023-02-25T06:31:37.533Z,99183.44
2023-02-25T06:34:05.200Z,99178.38
2023-02-25T06:36:33.121Z,99174.94
2023-02-25T06:39:00.666Z,99183.69
2023-02-25T06:41:28.302Z,99195.81
2023-02-25T06:43:55.409Z,99192.34
2023-02-25T06:46:26.950Z,99203.09
2023-02-25T06:48:54.605Z,99216.38
2023-02-25T06:51:22.275Z,99216.28
2023-02-25T06:53:50.962Z,99236.66
2023-02-25T06:56:20.202Z,99237.94
2023-02-25T06:58:47.871Z,99245.91
2023-02-25T07:01:16.730Z,99236.81
2023-02-25T07:03:43.789Z,99255.59
2023-02-25T07:06:11.485Z,99261.25
2023-02-25T07:08:38.541Z,99258.00
2023-02-25T07:11:17.575Z,99270.22
2023-02-25T07:13:49.660Z,99279.78
2023-02-25T07:16:17.470Z,99286.13
2023-02-25T07:18:46.181Z,99296.50
2023-02-25T07:21:13.852Z,99284.84
2023-02-25T07:23:42.180Z,99290.72
2023-02-25T07:26:13.282Z,99279.56
2023-02-25T07:28:41.116Z,99285.19
2023-02-25T07:31:15.471Z,99293.78
2023-02-25T07:33:42.940Z,99290.44
2023-02-25T07:36:11.598Z,99292.38
2023-02-25T07:38:38.938Z,99295.84
2023-02-25T07:41:12.743Z,99295.59
2023-02-25T07:43:40.567Z,99308.94
2023-02-25T07:46:08.871Z,99316.91
2023-02-25T07:48:36.041Z,99332.91
2023-02-25T07:51:09.880Z,99328.16
2023-02-25T07:53:37.250Z,99326.66
2023-02-25T07:56:06.826Z,99330.19
2023-02-25T07:58:35.400Z,99337.22
2023-02-25T08:01:27.966Z,99338.34
2023-02-25T08:03:59.217Z,99356.75
2023-02-25T08:06:28.015Z,99353.41
2023-02-25T08:08:55.331Z,99355.78
2023-02-25T08:11:25.456Z,99353.78
2023-02-25T08:13:52.699Z,99347.28
2023-02-25T08:16:21.563Z,99358.84
2023-02-25T08:18:49.640Z,99369.31
2023-02-25T08:21:18.660Z,99369.41
2023-02-25T08:23:45.791Z,99379.69
2023-02-25T08:26:13.296Z,99374.94
2023-02-25T08:28:40.237Z,99376.06
2023-02-25T08:31:14.117Z,99383.56
2023-02-25T08:33:45.519Z,99383.09
2023-02-25T08:36:16.718Z,99379.13
2023-02-25T08:38:44.479Z,99394.03
2023-02-25T08:41:11.665Z,99408.19
2023-02-25T08:43:40.833Z,99402.41
2023-02-25T08:46:08.918Z,99408.75
2023-02-25T08:48:36.346Z,99410.59
2023-02-25T08:51:08.669Z,99419.88
2023-02-25T08:53:40.619Z,99414.00
2023-02-25T08:56:11.576Z,99427.75
2023-02-25T08:58:39.465Z,99434.44
2023-02-25T09:01:12.995Z,99440.00
2023-02-25T09:03:53.033Z,99445.25
2023-02-25T09:06:23.711Z,99447.66
2023-02-25T09:08:52.441Z,99447.19
2023-02-25T09:11:21.049Z,99455.63
2023-02-25T09:13:48.628Z,99468.19
2023-02-25T09:16:17.194Z,99466.34
2023-02-25T09:18:46.170Z,99479.63
2023-02-25T09:21:14.492Z,99474.25
2023-02-25T09:23:41.751Z,99481.66
2023-02-25T09:26:08.844Z,99488.25
2023-02-25T09:28:36.649Z,99488.56
2023-02-25T09:31:04.214Z,99503.78
2023-02-25T09:33:32.625Z,99491.56
2023-02-25T09:36:11.955Z,99501.22
2023-02-25T09:38:41.317Z,99508.94
2023-02-25T09:41:33.695Z,99504.75
2023-02-25T09:44:35.827Z,99521.91
2023-02-25T09:47:08.622Z,99514.84
2023-02-25T09:49:43.055Z,99518.44
2023-02-25T09:52:22.541Z,99515.88
2023-02-25T09:54:56.645Z,99532.81
2023-02-25T09:57:23.751Z,99542.81
2023-02-25T09:59:53.674Z,99535.22
2023-02-25T10:02:46.813Z,99537.25
2023-02-25T10:05:39.127Z,99539.50
2023-02-25T10:08:21.590Z,99547.53
2023-02-25T10:11:09.992Z,99559.13
2023-02-25T10:14:10.014Z,99562.78
2023-02-25T10:17:13.114Z,99557.84
2023-02-25T10:20:02.603Z,99564.28
2023-02-25T10:23:17.677Z,99586.97
2023-02-25T10:25:56.626Z,99581.94
2023-02-25T10:28:24.504Z,99593.47
2023-02-25T10:31:04.485Z,99588.81
2023-02-25T10:33:40.642Z,99585.25
2023-02-25T10:36:23.143Z,99590.75
2023-02-25T10:38:53.212Z,99598.31
2023-02-25T10:41:23.632Z,99587.66
2023-02-25T10:43:52.826Z,99616.13
2023-02-25T10:47:01.292Z,99601.88
2023-02-25T10:49:31.016Z,99611.59
2023-02-25T10:52:03.213Z,99609.22
2023-02-25T10:54:45.499Z,99611.06
2023-02-25T10:57:22.264Z,99612.72
2023-02-25T11:00:01.744Z,99614.97
2023-02-25T11:02:31.501Z,99625.69
2023-02-25T11:04:58.677Z,99622.91
2023-02-25T11:07:38.044Z,99627.03
2023-02-25T11:10:20.450Z,99627.75
2023-02-25T11:12:58.457Z,99636.44
2023-02-25T11:15:41.632Z,99642.97
2023-02-25T11:18:29.183Z,99636.88
2023-02-25T11:21:09.833Z,99646.03
2023-02-25T11:23:47.079Z,99650.44
2023-02-25T11:26:35.037Z,99645.97
2023-02-25T11:29:26.221Z,99651.69
2023-02-25T11:32:10.472Z,99637.78
2023-02-25T11:34:55.498Z,99651.47
2023-02-25T11:37:43.034Z,99653.34
2023-02-25T11:40:27.905Z,99665.91
2023-02-25T11:43:12.972Z,99662.63
2023-02-25T11:45:51.322Z,99657.53
2023-02-25T11:48:27.844Z,99676.50
2023-02-25T11:51:05.508Z,99673.03
2023-02-25T11:54:07.563Z,99681.13
2023-02-25T11:56:38.642Z,99673.41
2023-02-25T11:59:40.347Z,99679.84
2023-02-25T12:02:44.435Z,99669.69
2023-02-25T12:05:58.263Z,99671.31
2023-02-25T12:09:11.010Z,99692.19
2023-02-25T12:12:14.824Z,99705.84
2023-02-25T12:15:08.628Z,99717.28
2023-02-25T12:18:18.857Z,99708.25
2023-02-25T12:21:40.816Z,99719.81
2023-02-25T12:24:52.116Z,99723.38
2023-02-25T12:27:51.036Z,99733.03
2023-02-25T12:30:43.008Z,99739.50
2023-02-25T12:33:32.983Z,99749.38
2023-02-25T12:36:37.471Z,99759.50
2023-02-25T12:39:38.245Z,99758.44
2023-02-25T12:42:45.555Z,99764.56
2023-02-25T12:45:49.350Z,99767.75
2023-02-25T12:48:42.679Z,99782.00
2023-02-25T12:51:22.929Z,99791.34
2023-02-25T12:54:29.098Z,99795.97
2023-02-25T12:57:36.135Z,99802.19
2023-02-25T13:00:36.935Z,99805.88
2023-02-25T13:03:15.566Z,99793.53
2023-02-25T13:06:23.864Z,99799.91
2023-02-25T13:09:25.691Z,99797.00
2023-02-25T13:12:13.183Z,99814.59
2023-02-25T13:15:20.407Z,99824.78
2023-02-25T13:18:06.899Z,99829.59
2023-02-25T13:20:54.587Z,99819.03
2023-02-25T13:23:51.889Z,99835.84
2023-02-25T13:26:40.783Z,99839.16
2023-02-25T13:29:47.814Z,99838.00
2023-02-25T13:32:54.434Z,99845.31
2023-02-25T13:36:00.774Z,99848.22
2023-02-25T13:38:46.094Z,99865.22
2023-02-25T13:41:49.893Z,99861.31
2023-02-25T13:44:46.741Z,99867.34
2023-02-25T13:47:32.428Z,99868.97
2023-02-25T13:50:43.198Z,99881.66
2023-02-25T13:54:07.608Z,99892.53
2023-02-25T13:57:09.276Z,99881.91
2023-02-25T14:00:07.091Z,99899.00
2023-02-25T14:03:05.099Z,99900.59
2023-02-25T14:06:03.833Z,99894.66
2023-02-25T14:08:44.625Z,99894.28
2023-02-25T14:11:38.288Z,99897.13
2023-02-25T14:14:45.737Z,99919.19
2023-02-25T14:17:37.657Z,99917.81
2023-02-25T14:20:15.496Z,99926.25
2023-02-25T14:22:51.404Z,99922.47
2023-02-25T14:25:35.000Z,99934.63
2023-02-25T14:28:28.548Z,99939.06
2023-02-25T14:31:08.392Z,99936.38
2023-02-25T14:34:20.985Z,99942.09
2023-02-25T14:37:15.988Z,99957.38
2023-02-25T14:40:03.039Z,99959.94
2023-02-25T14:42:53.792Z,99968.28
2023-02-25T14:45:29.058Z,99970.25
2023-02-25T14:48:30.371Z,99959.63
2023-02-25T14:51:30.438Z,99978.38
2023-02-25T14:54:28.137Z,99981.81
2023-02-25T14:57:27.525Z,99993.25
2023-02-25T15:00:49.683Z,99987.81
2023-02-25T15:03:53.543Z,99996.50
2023-02-25T15:06:47.946Z,99982.72
2023-02-25T15:09:44.194Z,100000.28
2023-02-25T15:12:25.455Z,100004.81
2023-02-25T15:15:40.110Z,100015.19
2023-02-25T15:18:32.015Z,100015.09
2023-02-25T15:20:59.303Z,100018.19
2023-02-25T15:23:50.774Z,100022.94
2023-02-25T15:26:47.351Z,100025.00
2023-02-25T15:29:44.424Z,100036.81
2023-02-25T15:32:30.874Z,100042.00
2023-02-25T15:35:06.937Z,100045.34
2023-02-25T15:37:54.914Z,100038.28
2023-02-25T15:40:24.124Z,100051.41
2023-02-25T15:42:54.014Z,100059.03
2023-02-25T15:45:27.595Z,100065.38
2023-02-25T15:48:06.841Z,100072.16
2023-02-25T15:50:54.974Z,100076.31
2023-02-25T15:53:23.166Z,100078.47
2023-02-25T15:55:52.333Z,100082.25
2023-02-25T15:58:25.435Z,100089.50
2023-02-25T16:01:39.441Z,100097.31
2023-02-25T16:04:43.307Z,100096.16
2023-02-25T16:07:15.778Z,100097.78
2023-02-25T16:09:51.753Z,100109.00
2023-02-25T16:12:19.299Z,100108.25
2023-02-25T16:14:47.168Z,100107.09
2023-02-25T16:17:31.830Z,100111.56
2023-02-25T16:20:12.466Z,100129.41
2023-02-25T16:22:44.505Z,100139.44
2023-02-25T16:25:18.897Z,100135.19
2023-02-25T16:27:59.917Z,100139.09
2023-02-25T16:30:59.038Z,100146.31
2023-02-25T16:33:38.096Z,100152.13
2023-02-25T16:36:23.461Z,100168.53
2023-02-25T16:39:12.384Z,100179.47
2023-02-25T16:41:39.794Z,100169.72
2023-02-25T16:44:08.372Z,100182.81
2023-02-25T16:46:39.239Z,100181.03
2023-02-25T16:49:20.354Z,100192.28
2023-02-25T16:51:47.865Z,100191.94
2023-02-25T16:54:22.340Z,100192.97
2023-02-25T16:57:04.172Z,100205.44
2023-02-25T16:59:33.809Z,100210.78
2023-02-25T17:02:23.618Z,100220.56
2023-02-25T17:04:54.796Z,100223.41
2023-02-25T17:07:30.028Z,100233.84
2023-02-25T17:10:03.899Z,100235.50
2023-02-25T17:12:38.885Z,100232.88
2023-02-25T17:15:20.361Z,100240.41
2023-02-25T17:17:53.497Z,100251.03
2023-02-25T17:20:25.033Z,100245.16
2023-02-25T17:22:52.543Z,100262.28
2023-02-25T17:25:23.897Z,100262.47
2023-02-25T17:27:51.297Z,100266.97
2023-02-25T17:30:46.051Z,100266.59
2023-02-25T17:33:27.056Z,100278.19
2023-02-25T17:36:09.381Z,100281.88
2023-02-25T17:38:39.020Z,100278.59
2023-02-25T17:41:06.755Z,100276.78
2023-02-25T17:43:38.752Z,100287.34
2023-02-25T17:46:38.173Z,100297.75
2023-02-25T17:49:29.500Z,100281.25
2023-02-25T17:52:17.231Z,100298.97
2023-02-25T17:54:55.539Z,100305.28
2023-02-25T17:57:24.704Z,100314.03
2023-02-25T18:00:05.562Z,100316.06
2023-02-25T18:02:46.090Z,100319.13
2023-02-25T18:05:13.008Z,100312.78
2023-02-25T18:07:44.645Z,100319.53
2023-02-25T18:10:23.710Z,100325.63
2023-02-25T18:12:50.981Z,100325.44
2023-02-25T18:15:22.393Z,100336.22
2023-02-25T18:17:56.350Z,100337.03
2023-02-25T18:20:40.879Z,100335.41
2023-02-25T18:23:21.862Z,100348.63
2023-02-25T18:26:09.677Z,100345.97
2023-02-25T18:28:37.043Z,100356.78
2023-02-25T18:31:04.206Z,100359.81
2023-02-25T18:33:31.310Z,100363.09
2023-02-25T18:35:58.904Z,100357.59
2023-02-25T18:38:27.599Z,100373.25
2023-02-25T18:40:55.351Z,100367.34
2023-02-25T18:43:34.276Z,100361.44
2023-02-25T18:46:01.946Z,100366.94
2023-02-25T18:48:29.189Z,100375.28
2023-02-25T18:50:58.400Z,100377.31
2023-02-25T18:53:26.920Z,100385.25
2023-02-25T18:55:56.797Z,100385.69
2023-02-25T18:58:24.879Z,100381.19
2023-02-25T19:00:56.600Z,100390.16
2023-02-25T19:03:37.691Z,100393.41
2023-02-25T19:06:05.939Z,100395.44
2023-02-25T19:08:33.237Z,100397.47
2023-02-25T19:11:00.389Z,100406.44
2023-02-25T19:13:39.318Z,100411.31
2023-02-25T19:16:07.182Z,100413.75
2023-02-25T19:18:34.587Z,100416.59
2023-02-25T19:21:01.647Z,100410.88
2023-02-25T19:23:29.113Z,100414.56
2023-02-25T19:25:59.615Z,100422.06
2023-02-25T19:28:27.075Z,100420.66
2023-02-25T19:30:54.759Z,100424.09
2023-02-25T19:33:21.782Z,100432.25
2023-02-25T19:35:48.921Z,100423.91
2023-02-25T19:38:19.336Z,100434.47
2023-02-25T19:40:47.829Z,100450.53
2023-02-25T19:43:16.463Z,100447.47
2023-02-25T19:45:44.277Z,100448.28
2023-02-25T19:48:11.547Z,100453.59
2023-02-25T19:50:40.955Z,100453.78
2023-02-25T19:53:08.673Z,100459.88
2023-02-25T19:55:35.608Z,100462.94
2023-02-25T19:58:02.683Z,100467.41
2023-02-25T20:00:29.904Z,100474.13
2023-02-25T20:02:56.915Z,100475.97
2023-02-25T20:05:24.695Z,100480.84
2023-02-25T20:07:52.418Z,100480.03
2023-02-25T20:10:20.082Z,100482.06
2023-02-25T20:12:48.135Z,100487.97
2023-02-25T20:15:17.158Z,100478.41
2023-02-25T20:17:46.486Z,100483.06
2023-02-25T20:20:15.340Z,100495.91
2023-02-25T20:22:43.492Z,100494.06
2023-02-25T20:25:13.148Z,100491.63
2023-02-25T20:27:43.283Z,100497.72
2023-02-25T20:30:14.487Z,100495.09
2023-02-25T20:32:43.576Z,100509.31
2023-02-25T20:35:20.671Z,100508.50
2023-02-25T20:38:27.527Z,100513.19
2023-02-25T20:40:54.805Z,100516.41
2023-02-25T20:43:22.115Z,100524.56
2023-02-25T20:45:49.238Z,100523.16
2023-02-25T20:48:33.021Z,100538.41
2023-02-25T20:51:00.658Z,100539.63
2023-02-25T20:53:27.827Z,100537.81
2023-02-25T20:55:57.411Z,100539.00
2023-02-25T20:58:24.509Z,100550.84
2023-02-25T21:00:51.595Z,100548.00
2023-02-25T21:03:18.532Z,100549.38
2023-02-25T21:05:45.618Z,100552.03
2023-02-25T21:08:12.646Z,100558.16
2023-02-25T21:10:39.747Z,100549.59
2023-02-25T21:13:06.760Z,100562.19
2023-02-25T21:15:33.609Z,100557.91
2023-02-25T21:18:00.508Z,100570.31
2023-02-25T21:20:27.475Z,100577.44
2023-02-25T21:22:54.533Z,100574.78
2023-02-25T21:25:21.549Z,100580.09
2023-02-25T21:27:48.569Z,100582.34
2023-02-25T21:30:16.240Z,100582.97
2023-02-25T21:32:43.121Z,100587.44
2023-02-25T21:35:10.784Z,100589.25
2023-02-25T21:37:38.082Z,100595.38
2023-02-25T21:40:05.701Z,100590.28
2023-02-25T21:42:33.572Z,100602.06
2023-02-25T21:45:00.560Z,100604.91
2023-02-25T21:47:27.583Z,100599.59
2023-02-25T21:49:55.249Z,100595.34
2023-02-25T21:52:22.702Z,100604.72
2023-02-25T21:54:49.857Z,100610.00
2023-02-25T21:57:16.974Z,100611.63
2023-02-25T21:59:44.132Z,100617.09
2023-02-25T22:02:11.224Z,100611.19
2023-02-25T22:04:38.150Z,100621.97
2023-02-25T22:07:05.092Z,100607.75
2023-02-25T22:09:32.035Z,100617.09
2023-02-25T22:11:59.074Z,100627.69
2023-02-25T22:14:26.318Z,100622.78
2023-02-25T22:19:44.417Z,100630.28
2023-02-25T22:22:13.554Z,100621.13
2023-02-25T22:24:41.120Z,100624.38
2023-02-25T22:27:08.090Z,100626.41
2023-02-25T22:29:35.012Z,100634.72
2023-02-25T22:32:01.965Z,100642.41
2023-02-25T22:34:29.062Z,100646.50
2023-02-25T22:36:56.061Z,100647.50
2023-02-25T22:39:22.939Z,100647.69
2023-02-25T22:41:49.928Z,100658.09
2023-02-25T22:44:16.929Z,100647.91
2023-02-25T22:46:44.223Z,100657.84
2023-02-25T22:49:11.654Z,100657.22
2023-02-25T22:51:43.091Z,100668.41
2023-02-25T22:54:16.845Z,100667.59
2023-02-25T22:56:45.745Z,100667.16
2023-02-25T22:59:14.475Z,100681.56
2023-02-25T23:01:41.440Z,100687.66
2023-02-25T23:04:08.506Z,100688.47
2023-02-25T23:06:43.332Z,100674.63
2023-02-25T23:09:13.440Z,100694.22
2023-02-25T23:11:42.881Z,100700.16
2023-02-25T23:14:10.785Z,100704.44
2023-02-25T23:16:43.783Z,100705.25
2023-02-25T23:19:16.282Z,100702.22
2023-02-25T23:21:43.999Z,100698.75
2023-02-25T23:24:16.124Z,100709.75
2023-02-25T23:26:44.416Z,100708.94
2023-02-25T23:29:12.474Z,100713.22
2023-02-25T23:31:45.252Z,100721.16
2023-02-25T23:34:18.438Z,100715.88
2023-02-25T23:36:45.860Z,100722.34
2023-02-25T23:39:14.164Z,100728.47
2023-02-25T23:41:41.957Z,100736.59
2023-02-25T23:44:11.429Z,100734.94
2023-02-25T23:46:39.432Z,100739.44
2023-02-25T23:49:07.441Z,100753.03
2023-02-25T23:51:36.070Z,100746.47
2023-02-25T23:54:05.899Z,100748.66
2023-02-25T23:56:34.207Z,100743.94
2023-02-25T23:59:01.624Z,100746.13
